Time;durP1;ratioP1;P1;durP2;ratioP2;P2;SDS_P1;SDS_P2;PMS_P1;PMS_P2;Temp;Humidity;BMP_temperature;BMP_pressure;BME280_temperature;BME280_humidity;BME280_pressure;Samples;Min_cycle;Max_cycle;Signal;HPM_P1;HPM_P2
2021/01/21 00:01:49;;;;;;;57.17;30.95;;;;;;;;;;5051383;28;20276;-66
2021/01/21 00:04:15;;;;;;;60.75;31.02;;;;;;;;;;5050412;28;20201;-65
2021/01/21 00:06:41;;;;;;;62.42;31.20;;;;;;;;;;5051106;28;20208;-63
2021/01/21 00:09:08;;;;;;;60.95;32.50;;;;;;;;;;5051316;28;20685;-63
2021/01/21 00:11:34;;;;;;;61.35;32.67;;;;;;;;;;5050705;28;20267;-63
2021/01/21 00:14:00;;;;;;;68.80;35.95;;;;;;;;;;5051502;28;20204;-63
2021/01/21 00:16:27;;;;;;;63.75;33.67;;;;;;;;;;5050237;28;20192;-64
2021/01/21 00:18:53;;;;;;;73.80;36.33;;;;;;;;;;5050749;28;20223;-62
2021/01/21 00:21:19;;;;;;;67.25;32.45;;;;;;;;;;5050421;28;20335;-66
2021/01/21 00:23:45;;;;;;;59.40;31.75;;;;;;;;;;5050848;28;20193;-64
2021/01/21 00:26:12;;;;;;;53.60;29.70;;;;;;;;;;5050469;28;20212;-64
2021/01/21 00:28:38;;;;;;;53.47;28.88;;;;;;;;;;5050624;28;20193;-65
2021/01/21 00:31:04;;;;;;;55.92;29.65;;;;;;;;;;5050086;28;20197;-65
2021/01/21 00:33:30;;;;;;;57.38;29.77;;;;;;;;;;5050863;28;20215;-63
2021/01/21 00:35:57;;;;;;;59.30;30.20;;;;;;;;;;5050142;28;20309;-64
2021/01/21 00:38:23;;;;;;;59.95;30.15;;;;;;;;;;5050761;28;20192;-65
2021/01/21 00:40:49;;;;;;;58.88;29.23;;;;;;;;;;5050572;28;20247;-64
2021/01/21 00:43:16;;;;;;;54.80;28.63;;;;;;;;;;5050863;28;20292;-64
2021/01/21 00:45:42;;;;;;;52.47;28.48;;;;;;;;;;5049905;28;20786;-64
2021/01/21 00:48:08;;;;;;;49.92;26.27;;;;;;;;;;5049924;28;20280;-65
2021/01/21 00:50:35;;;;;;;48.72;26.35;;;;;;;;;;5048211;28;20197;-63
2021/01/21 00:53:13;;;;;;;47.85;25.75;;;;;;;;;;5049053;28;20204;-66
2021/01/21 00:55:43;;;;;;;45.20;25.85;;;;;;;;;;5049896;28;20192;-64
2021/01/21 00:58:10;;;;;;;47.25;25.60;;;;;;;;;;5049592;28;20208;-65
2021/01/21 01:00:38;;;;;;;47.65;25.80;;;;;;;;;;5048955;28;20204;-64
2021/01/21 01:03:25;;;;;;;45.55;26.17;;;;;;;;;;5049802;28;20192;-66
2021/01/21 01:05:51;;;;;;;52.47;26.70;;;;;;;;;;5047952;28;20274;-65
2021/01/21 01:08:18;;;;;;;48.80;26.58;;;;;;;;;;5049572;28;20332;-65
2021/01/21 01:10:44;;;;;;;46.70;26.73;;;;;;;;;;5049257;28;20304;-65
2021/01/21 01:13:24;;;;;;;49.70;26.35;;;;;;;;;;5048156;28;20223;-64
2021/01/21 01:15:52;;;;;;;52.10;27.65;;;;;;;;;;5048290;28;20625;-64
2021/01/21 01:18:23;;;;;;;76.75;37.58;;;;;;;;;;5048364;28;20204;-63
2021/01/21 01:20:50;;;;;;;79.25;38.17;;;;;;;;;;5049129;28;20287;-64
2021/01/21 01:23:16;;;;;;;72.05;36.63;;;;;;;;;;5050067;28;20201;-65
2021/01/21 01:25:43;;;;;;;62.53;32.35;;;;;;;;;;5047730;28;20714;-64
2021/01/21 01:28:10;;;;;;;65.25;33.55;;;;;;;;;;5048100;28;20204;-64
2021/01/21 01:30:36;;;;;;;63.58;32.15;;;;;;;;;;5048445;28;20234;-69
2021/01/21 01:33:02;;;;;;;71.05;36.15;;;;;;;;;;5050283;28;20534;-64
2021/01/21 01:35:30;;;;;;;85.13;42.95;;;;;;;;;;5047534;28;20752;-64
2021/01/21 01:37:56;;;;;;;122.03;54.30;;;;;;;;;;5049885;28;20267;-64
2021/01/21 01:40:22;;;;;;;133.30;58.28;;;;;;;;;;5047972;28;20196;-65
2021/01/21 01:42:52;;;;;;;105.20;49.72;;;;;;;;;;5048296;28;20305;-64
2021/01/21 01:45:21;;;;;;;107.10;50.67;;;;;;;;;;5049408;28;20625;-64
2021/01/21 01:47:49;;;;;;;132.70;59.78;;;;;;;;;;5049575;28;20189;-64
2021/01/21 01:50:45;;;;;;;150.88;69.20;;;;;;;;;;5040546;28;20196;-64
2021/01/21 01:53:15;;;;;;;150.13;66.20;;;;;;;;;;5049513;28;20199;-65
2021/01/21 01:55:46;;;;;;;180.60;80.32;;;;;;;;;;5047681;28;20209;-64
2021/01/21 01:58:41;;;;;;;175.73;78.95;;;;;;;;;;5045972;28;20283;-64
2021/01/21 02:01:28;;;;;;;165.90;71.25;;;;;;;;;;5051353;28;20287;-64
2021/01/21 02:03:56;;;;;;;155.07;69.18;;;;;;;;;;5053593;28;20646;-63
2021/01/21 02:06:40;;;;;;;170.27;75.55;;;;;;;;;;5054359;28;20231;-64
2021/01/21 02:09:08;;;;;;;160.00;74.18;;;;;;;;;;5053621;28;20289;-64
2021/01/21 02:11:34;;;;;;;167.82;76.45;;;;;;;;;;5053034;28;20195;-64
2021/01/21 02:14:03;;;;;;;148.57;70.22;;;;;;;;;;5051811;28;20201;-65
2021/01/21 02:16:37;;;;;;;131.13;61.33;;;;;;;;;;5051600;28;20279;-65
2021/01/21 02:19:10;;;;;;;149.52;70.20;;;;;;;;;;5051776;28;20207;-63
2021/01/21 02:22:06;;;;;;;142.77;65.57;;;;;;;;;;5051083;28;20223;-64
2021/01/21 02:24:51;;;;;;;136.82;63.35;;;;;;;;;;5052081;28;21036;-64
2021/01/21 02:27:19;;;;;;;122.38;56.67;;;;;;;;;;5053051;28;20203;-64
2021/01/21 02:29:46;;;;;;;99.78;49.22;;;;;;;;;;5051396;28;20303;-67
2021/01/21 02:32:37;;;;;;;123.82;58.33;;;;;;;;;;5051518;28;20997;-63
2021/01/21 02:35:15;;;;;;;125.30;59.72;;;;;;;;;;5050627;28;20293;-63
2021/01/21 02:37:53;;;;;;;123.78;58.83;;;;;;;;;;5051458;28;20282;-62
2021/01/21 02:40:22;;;;;;;132.25;64.57;;;;;;;;;;5051837;28;20220;-64
2021/01/21 02:43:10;;;;;;;132.52;62.25;;;;;;;;;;5051252;28;20212;-64
2021/01/21 02:45:42;;;;;;;121.72;58.00;;;;;;;;;;5050679;28;20226;-63
2021/01/21 02:48:09;;;;;;;136.65;64.25;;;;;;;;;;5051104;28;20701;-66
2021/01/21 02:51:00;;;;;;;130.15;60.90;;;;;;;;;;5050386;28;20666;-65
2021/01/21 02:53:28;;;;;;;126.68;60.28;;;;;;;;;;5052656;28;20193;-64
2021/01/21 02:55:59;;;;;;;118.72;57.92;;;;;;;;;;5052112;28;20226;-64
2021/01/21 02:58:32;;;;;;;107.47;53.33;;;;;;;;;;5050838;28;20204;-64
2021/01/21 03:01:03;;;;;;;88.13;46.13;;;;;;;;;;5050620;28;20257;-64
2021/01/21 03:03:31;;;;;;;85.85;43.10;;;;;;;;;;5052485;28;20189;-65
2021/01/21 03:06:05;;;;;;;81.32;42.05;;;;;;;;;;5051133;28;20282;-65
2021/01/21 03:08:35;;;;;;;79.82;40.72;;;;;;;;;;5052358;28;20206;-65
2021/01/21 03:11:11;;;;;;;72.47;39.15;;;;;;;;;;5050167;28;20662;-64
2021/01/21 03:13:43;;;;;;;85.00;46.80;;;;;;;;;;5052338;28;20215;-65
2021/01/21 03:16:09;;;;;;;83.35;42.50;;;;;;;;;;5051329;28;20634;-64
2021/01/21 03:18:36;;;;;;;72.75;39.83;;;;;;;;;;5050715;28;20196;-64
2021/01/21 03:21:03;;;;;;;85.82;43.72;;;;;;;;;;5050053;28;20200;-64
2021/01/21 03:23:42;;;;;;;90.47;44.25;;;;;;;;;;5050528;28;20199;-63
2021/01/21 03:26:13;;;;;;;92.07;48.47;;;;;;;;;;5049937;28;20232;-63
2021/01/21 03:28:46;;;;;;;77.93;42.88;;;;;;;;;;5050579;28;20329;-63
2021/01/21 03:31:13;;;;;;;81.35;42.40;;;;;;;;;;5050021;28;20287;-64
2021/01/21 03:33:39;;;;;;;82.85;44.17;;;;;;;;;;5050611;28;20197;-64
2021/01/21 03:36:06;;;;;;;85.68;44.63;;;;;;;;;;5049444;28;20236;-64
2021/01/21 03:38:33;;;;;;;96.65;46.70;;;;;;;;;;5050153;28;20200;-65
2021/01/21 03:41:26;;;;;;;80.28;43.00;;;;;;;;;;5042600;28;20663;-64
2021/01/21 03:44:06;;;;;;;84.75;43.13;;;;;;;;;;5050249;28;20615;-64
2021/01/21 03:46:35;;;;;;;84.63;44.22;;;;;;;;;;5049383;28;20227;-64
2021/01/21 03:49:02;;;;;;;105.68;51.70;;;;;;;;;;5050159;28;20192;-65
2021/01/21 03:52:04;;;;;;;93.53;47.08;;;;;;;;;;5046323;28;20231;-63
2021/01/21 03:54:38;;;;;;;96.90;48.25;;;;;;;;;;5049498;28;20200;-63
2021/01/21 03:57:13;;;;;;;95.00;47.63;;;;;;;;;;5050065;28;20196;-65
2021/01/21 03:59:40;;;;;;;85.80;44.47;;;;;;;;;;5049488;28;20205;-65
2021/01/21 04:02:07;;;;;;;81.75;41.55;;;;;;;;;;5049717;28;20715;-64
2021/01/21 04:04:36;;;;;;;65.15;33.65;;;;;;;;;;5048898;28;20281;-65
2021/01/21 04:07:02;;;;;;;53.22;29.88;;;;;;;;;;5049650;28;20204;-64
2021/01/21 04:09:37;;;;;;;49.55;26.67;;;;;;;;;;5049255;28;20208;-65
2021/01/21 04:12:31;;;;;;;59.50;31.33;;;;;;;;;;5049126;28;20208;-65
2021/01/21 04:14:59;;;;;;;59.38;31.95;;;;;;;;;;5048650;28;20288;-65
2021/01/21 04:17:27;;;;;;;60.47;32.78;;;;;;;;;;5049576;28;20295;-65
2021/01/21 04:19:54;;;;;;;73.80;37.25;;;;;;;;;;5048890;28;20215;-64
2021/01/21 04:22:20;;;;;;;79.75;41.28;;;;;;;;;;5048359;28;20189;-64
2021/01/21 04:24:47;;;;;;;87.25;42.55;;;;;;;;;;5048956;28;20204;-62
2021/01/21 04:27:24;;;;;;;84.25;42.70;;;;;;;;;;5049196;28;20200;-63
2021/01/21 04:29:53;;;;;;;89.03;44.15;;;;;;;;;;5050226;28;20230;-63
2021/01/21 04:32:20;;;;;;;91.53;45.60;;;;;;;;;;5049255;28;20200;-66
2021/01/21 04:34:47;;;;;;;98.05;47.72;;;;;;;;;;5048570;28;20291;-65
2021/01/21 04:37:13;;;;;;;89.70;42.88;;;;;;;;;;5051275;28;20220;-65
2021/01/21 04:40:03;;;;;;;117.00;56.05;;;;;;;;;;5046538;28;20266;-67
2021/01/21 04:42:31;;;;;;;113.50;54.55;;;;;;;;;;5049265;28;20708;-66
2021/01/21 04:45:06;;;;;;;142.95;70.20;;;;;;;;;;5049705;28;20773;-64
2021/01/21 04:47:38;;;;;;;153.75;74.00;;;;;;;;;;5049066;28;20666;-64
2021/01/21 04:50:28;;;;;;;200.63;95.78;;;;;;;;;;5046353;28;20208;-65
2021/01/21 04:53:05;;;;;;;166.05;79.53;;;;;;;;;;5048659;28;20204;-66
2021/01/21 04:55:42;;;;;;;152.75;73.20;;;;;;;;;;5048450;28;20212;-66
2021/01/21 04:58:31;;;;;;;123.38;60.38;;;;;;;;;;5049773;28;20199;-65
2021/01/21 05:01:01;;;;;;;144.85;65.85;;;;;;;;;;5043923;28;20210;-64
2021/01/21 05:03:31;;;;;;;127.75;64.32;;;;;;;;;;5048452;28;20269;-65
2021/01/21 05:06:17;;;;;;;151.23;62.83;;;;;;;;;;5049417;28;20222;-63
2021/01/21 05:08:44;;;;;;;124.53;59.13;;;;;;;;;;5048606;28;20197;-64
2021/01/21 05:11:19;;;;;;;113.68;54.90;;;;;;;;;;5047997;28;20614;-65
2021/01/21 05:14:05;;;;;;;107.15;52.42;;;;;;;;;;5049279;28;20203;-64
2021/01/21 05:17:09;;;;;;;102.35;49.03;;;;;;;;;;5047336;28;20218;-65
2021/01/21 05:19:52;;;;;;;94.90;45.20;;;;;;;;;;5046677;28;20208;-65
2021/01/21 05:22:37;;;;;;;73.95;36.50;;;;;;;;;;5049211;28;20258;-64
2021/01/21 05:25:18;;;;;;;68.97;36.22;;;;;;;;;;5048960;28;20223;-63
2021/01/21 05:28:05;;;;;;;68.32;35.38;;;;;;;;;;5049488;28;20211;-61
2021/01/21 05:30:48;;;;;;;74.43;37.42;;;;;;;;;;5048814;28;20711;-64
2021/01/21 05:33:16;;;;;;;65.75;33.40;;;;;;;;;;5048219;28;20632;-66
2021/01/21 05:35:51;;;;;;;63.88;33.90;;;;;;;;;;5051582;28;20243;-62
2021/01/21 05:38:20;;;;;;;70.88;36.22;;;;;;;;;;5051999;28;20277;-62
2021/01/21 05:41:18;;;;;;;65.57;35.10;;;;;;;;;;5040413;28;20207;-65
2021/01/21 05:44:06;;;;;;;72.20;37.10;;;;;;;;;;5052102;28;20218;-64
2021/01/21 05:47:11;;;;;;;71.05;37.15;;;;;;;;;;5049187;28;20211;-64
2021/01/21 05:49:39;;;;;;;72.38;35.90;;;;;;;;;;5051822;28;20212;-65
2021/01/21 05:52:12;;;;;;;74.65;36.67;;;;;;;;;;5051303;28;20215;-65
2021/01/21 05:54:40;;;;;;;73.60;36.10;;;;;;;;;;5050488;28;20196;-64
2021/01/21 05:57:11;;;;;;;83.72;42.33;;;;;;;;;;5053677;28;20212;-64
2021/01/21 05:59:38;;;;;;;91.03;48.58;;;;;;;;;;5050875;28;20208;-64
2021/01/21 06:02:16;;;;;;;73.63;37.90;;;;;;;;;;5051405;28;20196;-66
2021/01/21 06:04:50;;;;;;;76.32;38.15;;;;;;;;;;5051076;28;20196;-66
2021/01/21 06:07:22;;;;;;;72.80;37.72;;;;;;;;;;5053146;28;20228;-63
2021/01/21 06:09:48;;;;;;;70.22;38.85;;;;;;;;;;5052793;28;20299;-63
2021/01/21 06:12:15;;;;;;;77.28;38.55;;;;;;;;;;5052855;28;20205;-63
2021/01/21 06:14:41;;;;;;;91.97;45.92;;;;;;;;;;5052283;28;20590;-64
2021/01/21 06:17:08;;;;;;;116.63;57.40;;;;;;;;;;5052898;28;20177;-64
2021/01/21 06:19:54;;;;;;;149.98;72.13;;;;;;;;;;5054858;28;20316;-64
2021/01/21 06:22:27;;;;;;;161.30;76.50;;;;;;;;;;5055410;28;20197;-64
2021/01/21 06:24:59;;;;;;;160.48;79.95;;;;;;;;;;5053579;28;20562;-64
2021/01/21 06:27:26;;;;;;;166.93;79.68;;;;;;;;;;5053393;28;20197;-65
2021/01/21 06:29:54;;;;;;;153.15;74.45;;;;;;;;;;5052300;28;20292;-64
2021/01/21 06:32:26;;;;;;;160.80;78.43;;;;;;;;;;5052897;28;20181;-65
2021/01/21 06:34:52;;;;;;;161.25;77.55;;;;;;;;;;5052048;28;20262;-63
2021/01/21 06:37:21;;;;;;;144.93;72.82;;;;;;;;;;5052564;28;20677;-67
2021/01/21 06:40:07;;;;;;;149.77;72.28;;;;;;;;;;5052265;28;20196;-64
2021/01/21 06:42:37;;;;;;;164.10;81.22;;;;;;;;;;5053200;28;20209;-66
2021/01/21 06:45:04;;;;;;;140.60;70.15;;;;;;;;;;5051441;28;20201;-65
2021/01/21 06:47:31;;;;;;;164.00;82.70;;;;;;;;;;5052579;28;20189;-65
2021/01/21 06:49:58;;;;;;;308.83;149.63;;;;;;;;;;5052011;28;20195;-64
2021/01/21 06:52:25;;;;;;;418.48;213.82;;;;;;;;;;5052661;28;20607;-66
2021/01/21 06:54:52;;;;;;;462.17;255.57;;;;;;;;;;5053052;28;20279;-66
2021/01/21 06:57:38;;;;;;;461.15;252.65;;;;;;;;;;5053621;28;20192;-65
2021/01/21 07:00:06;;;;;;;414.35;212.63;;;;;;;;;;5051925;28;20291;-64
2021/01/21 07:02:38;;;;;;;371.17;182.02;;;;;;;;;;5052592;28;20279;-65
2021/01/21 07:05:11;;;;;;;305.50;146.32;;;;;;;;;;5052135;28;20215;-65
2021/01/21 07:07:53;;;;;;;275.23;134.48;;;;;;;;;;5052912;28;20208;-66
2021/01/21 07:10:28;;;;;;;209.32;104.57;;;;;;;;;;5052059;28;20183;-65
2021/01/21 07:12:55;;;;;;;166.20;74.50;;;;;;;;;;5053183;28;20662;-66
2021/01/21 07:15:33;;;;;;;103.78;54.85;;;;;;;;;;5051931;28;20582;-66
2021/01/21 07:18:04;;;;;;;105.68;54.50;;;;;;;;;;5052530;28;20228;-64
2021/01/21 07:20:31;;;;;;;92.47;48.53;;;;;;;;;;5051722;28;20200;-66
2021/01/21 07:23:01;;;;;;;84.50;46.08;;;;;;;;;;5052556;28;20189;-66
2021/01/21 07:25:29;;;;;;;85.85;46.53;;;;;;;;;;5053226;28;20209;-65
2021/01/21 07:27:55;;;;;;;85.10;45.78;;;;;;;;;;5054582;28;20196;-64
2021/01/21 07:30:22;;;;;;;91.35;49.40;;;;;;;;;;5054019;28;20192;-65
2021/01/21 07:33:08;;;;;;;95.07;49.70;;;;;;;;;;5053994;28;20192;-65
2021/01/21 07:35:38;;;;;;;97.55;48.60;;;;;;;;;;5051256;28;20292;-65
2021/01/21 07:38:05;;;;;;;123.20;61.33;;;;;;;;;;5051534;28;20629;-64
2021/01/21 07:40:49;;;;;;;116.57;59.58;;;;;;;;;;5051496;28;20307;-64
2021/01/21 07:43:15;;;;;;;115.75;58.00;;;;;;;;;;5051650;28;20181;-65
2021/01/21 07:46:17;;;;;;;100.22;53.58;;;;;;;;;;5051473;28;20732;-66
2021/01/21 07:48:43;;;;;;;123.70;59.15;;;;;;;;;;5051130;28;20199;-65
2021/01/21 07:51:12;;;;;;;121.30;63.65;;;;;;;;;;5050844;28;20200;-64
2021/01/21 07:53:38;;;;;;;120.63;59.92;;;;;;;;;;5051330;28;20200;-65
2021/01/21 07:56:05;;;;;;;118.25;60.53;;;;;;;;;;5049796;28;20203;-65
2021/01/21 07:58:38;;;;;;;117.35;62.88;;;;;;;;;;5051557;28;20204;-65
2021/01/21 08:01:05;;;;;;;118.20;60.03;;;;;;;;;;5050816;28;20327;-65
2021/01/21 08:03:34;;;;;;;115.60;58.25;;;;;;;;;;5051227;28;20206;-64
2021/01/21 08:06:01;;;;;;;99.57;52.78;;;;;;;;;;5050365;28;20228;-65
2021/01/21 08:08:27;;;;;;;88.30;47.33;;;;;;;;;;5051286;28;20203;-65
2021/01/21 08:10:59;;;;;;;81.00;42.30;;;;;;;;;;5050180;28;20238;-64
2021/01/21 08:13:27;;;;;;;75.28;39.20;;;;;;;;;;5051301;28;20196;-66
2021/01/21 08:15:53;;;;;;;75.47;39.33;;;;;;;;;;5050346;28;20185;-65
2021/01/21 08:18:20;;;;;;;70.63;38.20;;;;;;;;;;5051128;28;20211;-65
2021/01/21 08:20:46;;;;;;;74.15;39.63;;;;;;;;;;5050487;28;20280;-64
2021/01/21 08:23:14;;;;;;;68.10;37.85;;;;;;;;;;5050924;28;20212;-66
2021/01/21 08:25:49;;;;;;;68.70;35.83;;;;;;;;;;5049857;28;20703;-64
2021/01/21 08:28:17;;;;;;;61.95;34.53;;;;;;;;;;5050544;28;20973;-64
2021/01/21 08:30:44;;;;;;;59.85;35.10;;;;;;;;;;5050409;28;20197;-65
2021/01/21 08:33:15;;;;;;;67.00;37.30;;;;;;;;;;5050617;28;20215;-65
2021/01/21 08:35:46;;;;;;;62.22;37.45;;;;;;;;;;5049952;28;20255;-64
2021/01/21 08:38:20;;;;;;;66.00;38.67;;;;;;;;;;5050629;28;20200;-64
2021/01/21 08:40:47;;;;;;;65.68;36.40;;;;;;;;;;5049602;28;20201;-65
2021/01/21 08:43:14;;;;;;;69.00;37.20;;;;;;;;;;5050513;28;20200;-63
2021/01/21 08:45:40;;;;;;;61.42;35.65;;;;;;;;;;5050251;28;20644;-65
2021/01/21 08:48:07;;;;;;;56.42;33.92;;;;;;;;;;5050486;28;20197;-65
2021/01/21 08:50:34;;;;;;;61.80;35.30;;;;;;;;;;5049456;28;20193;-65
2021/01/21 08:53:03;;;;;;;65.22;37.33;;;;;;;;;;5050122;28;20204;-64
2021/01/21 08:55:43;;;;;;;62.05;36.25;;;;;;;;;;5050383;28;20200;-64
2021/01/21 08:58:13;;;;;;;78.53;47.58;;;;;;;;;;5049865;28;20204;-65
2021/01/21 09:00:57;;;;;;;113.05;61.72;;;;;;;;;;5049803;28;20200;-62
2021/01/21 09:03:30;;;;;;;121.78;68.32;;;;;;;;;;5050227;28;20776;-65
2021/01/21 09:05:57;;;;;;;134.30;74.55;;;;;;;;;;5049770;28;20254;-63
2021/01/21 09:08:23;;;;;;;125.70;70.95;;;;;;;;;;5049563;28;20200;-64
2021/01/21 09:10:55;;;;;;;130.20;71.07;;;;;;;;;;5049414;28;20180;-64
2021/01/21 09:13:22;;;;;;;117.78;66.45;;;;;;;;;;5050133;28;20200;-66
2021/01/21 09:15:52;;;;;;;110.47;62.28;;;;;;;;;;5049800;28;20784;-66
2021/01/21 09:18:20;;;;;;;86.88;49.88;;;;;;;;;;5049881;28;20227;-64
2021/01/21 09:20:47;;;;;;;82.22;47.42;;;;;;;;;;5049638;28;20211;-65
2021/01/21 09:23:20;;;;;;;78.90;45.80;;;;;;;;;;5050033;28;20762;-65
2021/01/21 09:25:47;;;;;;;71.85;43.75;;;;;;;;;;5049500;28;20216;-65
2021/01/21 09:28:14;;;;;;;70.60;41.78;;;;;;;;;;5049590;28;20220;-64
2021/01/21 09:30:41;;;;;;;64.80;39.50;;;;;;;;;;5049487;28;20261;-66
2021/01/21 09:33:07;;;;;;;66.10;37.97;;;;;;;;;;5049857;28;20193;-64
2021/01/21 09:35:34;;;;;;;63.00;37.10;;;;;;;;;;5049475;28;20235;-65
2021/01/21 09:38:00;;;;;;;60.90;36.17;;;;;;;;;;5048280;28;20184;-64
2021/01/21 09:40:30;;;;;;;57.17;34.83;;;;;;;;;;5048984;28;20185;-65
2021/01/21 09:42:58;;;;;;;57.08;32.25;;;;;;;;;;5050168;28;20196;-64
2021/01/21 09:45:26;;;;;;;59.40;32.92;;;;;;;;;;5049021;28;20201;-65
2021/01/21 09:47:52;;;;;;;56.10;31.50;;;;;;;;;;5049883;28;20197;-65
2021/01/21 09:50:19;;;;;;;49.30;29.98;;;;;;;;;;5049111;28;20254;-65
2021/01/21 09:52:46;;;;;;;47.42;29.17;;;;;;;;;;5049942;28;20623;-65
2021/01/21 09:55:13;;;;;;;45.58;28.63;;;;;;;;;;5048747;28;20658;-64
2021/01/21 09:57:40;;;;;;;46.10;29.13;;;;;;;;;;5049426;28;20712;-66
2021/01/21 10:00:07;;;;;;;47.80;29.05;;;;;;;;;;5048955;28;20203;-64
2021/01/21 10:02:37;;;;;;;53.40;30.88;;;;;;;;;;5049418;28;20267;-67
2021/01/21 10:05:04;;;;;;;53.15;31.65;;;;;;;;;;5049581;28;20204;-65
2021/01/21 10:07:31;;;;;;;48.55;30.73;;;;;;;;;;5048918;28;20596;-64
2021/01/21 10:09:57;;;;;;;49.20;30.98;;;;;;;;;;5049307;28;20201;-65
2021/01/21 10:12:24;;;;;;;53.75;32.83;;;;;;;;;;5049434;28;20198;-64
2021/01/21 10:14:51;;;;;;;54.45;32.70;;;;;;;;;;5049199;28;20199;-65
2021/01/21 10:17:17;;;;;;;52.72;33.28;;;;;;;;;;5048952;28;20173;-65
2021/01/21 10:19:43;;;;;;;52.28;32.78;;;;;;;;;;5049677;28;20200;-65
2021/01/21 10:22:10;;;;;;;54.58;33.67;;;;;;;;;;5053010;28;20188;-64
2021/01/21 10:24:37;;;;;;;53.33;32.58;;;;;;;;;;5052692;28;20983;-66
2021/01/21 10:27:03;;;;;;;55.63;32.92;;;;;;;;;;5052975;28;20227;-65
2021/01/21 10:29:29;;;;;;;58.90;33.40;;;;;;;;;;5052999;28;20258;-64
2021/01/21 10:31:55;;;;;;;61.70;34.95;;;;;;;;;;5053087;28;20200;-64
2021/01/21 10:34:23;;;;;;;60.65;35.75;;;;;;;;;;5053062;28;20666;-66
2021/01/21 10:36:49;;;;;;;63.17;35.88;;;;;;;;;;5053144;28;20231;-65
2021/01/21 10:39:18;;;;;;;58.03;34.10;;;;;;;;;;5053139;28;20187;-65
2021/01/21 10:41:45;;;;;;;64.40;34.60;;;;;;;;;;5052733;28;20257;-65
2021/01/21 10:44:11;;;;;;;58.80;34.33;;;;;;;;;;5052699;28;20204;-65
2021/01/21 10:46:38;;;;;;;61.53;35.55;;;;;;;;;;5052946;28;20220;-64
2021/01/21 10:49:04;;;;;;;66.03;36.15;;;;;;;;;;5052413;28;20197;-65
2021/01/21 10:51:30;;;;;;;66.93;38.53;;;;;;;;;;5052255;28;20228;-65
2021/01/21 10:53:57;;;;;;;81.15;41.25;;;;;;;;;;5052600;28;20644;-65
2021/01/21 10:56:23;;;;;;;77.07;43.42;;;;;;;;;;5052357;28;20736;-65
2021/01/21 10:58:49;;;;;;;70.43;43.75;;;;;;;;;;5052652;28;20207;-65
2021/01/21 11:01:16;;;;;;;78.10;42.95;;;;;;;;;;5052086;28;20211;-65
2021/01/21 11:03:42;;;;;;;74.07;44.17;;;;;;;;;;5052292;28;20208;-65
2021/01/21 11:06:09;;;;;;;72.93;45.13;;;;;;;;;;5051716;28;20224;-65
2021/01/21 11:08:35;;;;;;;73.55;45.50;;;;;;;;;;5052649;28;20196;-65
2021/01/21 11:11:01;;;;;;;75.65;45.88;;;;;;;;;;5050504;28;20212;-64
2021/01/21 11:13:32;;;;;;;77.07;45.33;;;;;;;;;;5051888;28;20696;-65
2021/01/21 11:15:58;;;;;;;60.72;38.22;;;;;;;;;;5052287;28;20216;-65
2021/01/21 11:18:25;;;;;;;66.88;39.65;;;;;;;;;;5052248;28;20629;-66
2021/01/21 11:20:51;;;;;;;65.43;40.03;;;;;;;;;;5051332;28;20208;-66
2021/01/21 11:23:17;;;;;;;56.53;33.85;;;;;;;;;;5052101;28;20674;-65
2021/01/21 11:25:44;;;;;;;50.05;31.13;;;;;;;;;;5051320;28;20646;-66
2021/01/21 11:28:11;;;;;;;50.20;29.35;;;;;;;;;;5052056;28;20583;-66
2021/01/21 11:30:37;;;;;;;47.13;28.52;;;;;;;;;;5051382;28;20628;-66
2021/01/21 11:33:04;;;;;;;57.20;32.17;;;;;;;;;;5051762;28;20200;-65
2021/01/21 11:35:33;;;;;;;56.10;29.52;;;;;;;;;;5051082;28;20228;-65
2021/01/21 11:37:59;;;;;;;38.42;24.13;;;;;;;;;;5051936;28;20216;-66
2021/01/21 11:40:26;;;;;;;38.58;22.23;;;;;;;;;;5051147;28;20250;-65
2021/01/21 11:42:52;;;;;;;43.13;23.67;;;;;;;;;;5051924;28;20227;-65
2021/01/21 11:45:18;;;;;;;39.15;23.38;;;;;;;;;;5051994;28;20634;-65
2021/01/21 11:47:45;;;;;;;38.42;23.95;;;;;;;;;;5051600;28;20208;-66
2021/01/21 11:50:14;;;;;;;46.65;25.98;;;;;;;;;;5051062;28;20197;-66
2021/01/21 11:52:40;;;;;;;46.25;25.42;;;;;;;;;;5051200;28;20201;-64
2021/01/21 11:55:08;;;;;;;42.40;24.13;;;;;;;;;;5051084;28;20219;-64
2021/01/21 11:57:35;;;;;;;39.78;24.25;;;;;;;;;;5051342;28;20201;-64
2021/01/21 12:00:01;;;;;;;46.30;24.48;;;;;;;;;;5050818;28;20208;-64
2021/01/21 12:02:30;;;;;;;39.75;25.13;;;;;;;;;;5051171;28;20274;-65
2021/01/21 12:04:56;;;;;;;52.47;24.77;;;;;;;;;;5050660;28;20258;-66
2021/01/21 12:07:23;;;;;;;41.50;23.20;;;;;;;;;;5051561;28;20244;-64
2021/01/21 12:09:49;;;;;;;39.75;23.00;;;;;;;;;;5050742;28;20193;-65
2021/01/21 12:12:15;;;;;;;33.67;20.95;;;;;;;;;;5050921;28;20193;-64
2021/01/21 12:14:41;;;;;;;33.92;19.10;;;;;;;;;;5050776;28;20274;-65
2021/01/21 12:17:07;;;;;;;30.38;17.90;;;;;;;;;;5051332;28;20607;-66
2021/01/21 12:19:34;;;;;;;27.48;15.80;;;;;;;;;;5050238;28;20211;-64
2021/01/21 12:22:00;;;;;;;33.13;16.55;;;;;;;;;;5050663;28;20192;-65
2021/01/21 12:24:26;;;;;;;28.08;16.25;;;;;;;;;;5050679;28;20250;-67
2021/01/21 12:26:52;;;;;;;35.38;17.40;;;;;;;;;;5050518;28;20270;-64
2021/01/21 12:29:18;;;;;;;41.35;18.58;;;;;;;;;;5050244;28;20569;-65
2021/01/21 12:31:45;;;;;;;39.13;17.95;;;;;;;;;;5050567;28;20698;-66
2021/01/21 12:34:11;;;;;;;27.08;18.10;;;;;;;;;;5050363;28;20228;-65
2021/01/21 12:36:38;;;;;;;31.25;16.85;;;;;;;;;;5050246;28;20256;-66
2021/01/21 12:39:04;;;;;;;28.63;15.67;;;;;;;;;;5050123;28;20203;-64
2021/01/21 12:41:31;;;;;;;23.77;14.73;;;;;;;;;;5050095;28;20466;-65
2021/01/21 12:43:58;;;;;;;26.90;15.90;;;;;;;;;;5050171;28;20189;-66
2021/01/21 12:46:28;;;;;;;28.63;16.10;;;;;;;;;;5050026;28;20204;-65
2021/01/21 12:48:55;;;;;;;30.33;18.50;;;;;;;;;;5050207;28;20649;-65
2021/01/21 12:51:21;;;;;;;31.75;19.27;;;;;;;;;;5049862;28;20825;-65
2021/01/21 12:53:48;;;;;;;39.75;20.50;;;;;;;;;;5050470;28;20199;-67
2021/01/21 12:56:15;;;;;;;30.65;18.63;;;;;;;;;;5049855;28;20195;-66
2021/01/21 12:58:41;;;;;;;29.13;17.43;;;;;;;;;;5049857;28;20211;-65
2021/01/21 13:01:07;;;;;;;26.23;16.43;;;;;;;;;;5049650;28;20582;-65
2021/01/21 13:03:36;;;;;;;28.30;15.10;;;;;;;;;;5050397;28;20439;-66
2021/01/21 13:06:09;;;;;;;26.43;14.27;;;;;;;;;;5049884;28;20478;-66
2021/01/21 13:08:36;;;;;;;24.77;14.03;;;;;;;;;;5050038;28;20431;-66
2021/01/21 13:11:03;;;;;;;24.47;14.10;;;;;;;;;;5049712;28;20438;-65
2021/01/21 13:13:32;;;;;;;26.17;13.83;;;;;;;;;;5050101;28;20447;-64
2021/01/21 13:15:59;;;;;;;23.98;13.55;;;;;;;;;;5049190;28;20559;-67
2021/01/21 13:18:26;;;;;;;23.33;14.60;;;;;;;;;;5050000;28;20196;-66
2021/01/21 13:20:53;;;;;;;25.87;15.47;;;;;;;;;;5049490;28;20435;-65
2021/01/21 13:23:19;;;;;;;27.90;17.63;;;;;;;;;;5050008;28;21056;-66
2021/01/21 13:25:45;;;;;;;25.10;15.47;;;;;;;;;;5049437;28;20439;-67
2021/01/21 13:28:12;;;;;;;26.20;15.40;;;;;;;;;;5049583;28;20439;-65
2021/01/21 13:30:38;;;;;;;22.73;14.27;;;;;;;;;;5049606;28;20438;-65
2021/01/21 13:33:04;;;;;;;29.97;17.57;;;;;;;;;;5050114;28;20518;-65
2021/01/21 13:35:31;;;;;;;26.47;16.17;;;;;;;;;;5049126;28;20470;-66
2021/01/21 13:37:57;;;;;;;26.97;14.90;;;;;;;;;;5049670;28;20446;-66
2021/01/21 13:40:23;;;;;;;25.23;15.43;;;;;;;;;;5049365;28;20439;-65
2021/01/21 13:42:49;;;;;;;26.30;15.53;;;;;;;;;;5050067;28;20442;-66
2021/01/21 13:45:16;;;;;;;24.23;15.13;;;;;;;;;;5049541;28;20471;-65
2021/01/21 13:47:42;;;;;;;23.67;15.47;;;;;;;;;;5049344;28;20585;-67
2021/01/21 13:50:09;;;;;;;32.80;19.10;;;;;;;;;;5049686;28;20438;-66
2021/01/21 13:52:35;;;;;;;28.80;16.43;;;;;;;;;;5049921;28;20529;-66
2021/01/21 13:55:02;;;;;;;26.00;15.33;;;;;;;;;;5050406;28;20557;-66
2021/01/21 13:57:29;;;;;;;23.30;14.57;;;;;;;;;;5053942;28;20528;-68
2021/01/21 13:59:56;;;;;;;27.57;16.23;;;;;;;;;;5053203;28;20423;-64
2021/01/21 14:02:22;;;;;;;23.30;15.33;;;;;;;;;;5053614;28;20431;-67
2021/01/21 14:04:48;;;;;;;23.57;15.13;;;;;;;;;;5052956;28;20446;-66
2021/01/21 14:07:14;;;;;;;22.93;14.93;;;;;;;;;;5053181;28;20473;-67
2021/01/21 14:09:40;;;;;;;26.13;16.63;;;;;;;;;;5053340;28;20442;-66
2021/01/21 14:12:07;;;;;;;27.30;14.83;;;;;;;;;;5053206;28;20443;-66
2021/01/21 14:14:34;;;;;;;25.37;15.00;;;;;;;;;;5052555;28;20510;-65
2021/01/21 14:17:01;;;;;;;25.40;16.60;;;;;;;;;;5053129;28;21045;-66
2021/01/21 14:19:28;;;;;;;26.93;18.20;;;;;;;;;;5052872;28;20879;-68
2021/01/21 14:21:54;;;;;;;29.80;18.57;;;;;;;;;;5053089;28;20825;-66
2021/01/21 14:24:20;;;;;;;28.10;19.10;;;;;;;;;;5052570;28;21047;-65
2021/01/21 14:26:47;;;;;;;36.93;24.23;;;;;;;;;;5053095;28;21047;-66
2021/01/21 14:29:13;;;;;;;32.73;21.57;;;;;;;;;;5053076;28;20438;-67
2021/01/21 14:31:39;;;;;;;26.03;18.93;;;;;;;;;;5052795;28;20438;-66